Time;durP1;ratioP1;P1;durP2;ratioP2;P2;SDS_P1;SDS_P2;PMS_P1;PMS_P2;Temp;Humidity;BMP_temperature;BMP_pressure;BME280_temperature;BME280_humidity;BME280_pressure;Samples;Min_cycle;Max_cycle;Signal;HPM_P1;HPM_P2
2022/12/10 00:00:37;;;;;;;5.20;3.85;;;;;;;-2.26;90.55;100920.13;5104657;28;20040;-70
2022/12/10 00:03:03;;;;;;;5.25;3.83;;;;;;;-2.30;90.68;100917.84;5115323;28;20040;-70
2022/12/10 00:05:28;;;;;;;5.80;4.00;;;;;;;-2.33;90.84;100925.97;5102179;28;20032;-71
2022/12/10 00:07:53;;;;;;;5.80;3.92;;;;;;;-2.39;91.62;100919.34;5093440;28;20028;-71
2022/12/10 00:10:19;;;;;;;4.90;3.40;;;;;;;-2.39;92.12;100929.88;5111303;28;20031;-71
2022/12/10 00:12:44;;;;;;;4.45;3.03;;;;;;;-2.27;91.86;100926.34;5104012;28;20483;-71
2022/12/10 00:15:10;;;;;;;5.72;3.58;;;;;;;-2.34;91.73;100905.84;5114862;28;20031;-70
2022/12/10 00:17:36;;;;;;;5.78;3.50;;;;;;;-2.29;92.67;100928.25;5103713;28;20031;-72
2022/12/10 00:20:02;;;;;;;19.77;7.32;;;;;;;-2.38;92.45;100898.16;5109423;28;20390;-71
2022/12/10 00:22:27;;;;;;;19.27;7.30;;;;;;;-2.26;93.44;100924.53;5111705;28;20028;-70
2022/12/10 00:24:52;;;;;;;14.35;6.53;;;;;;;-2.14;92.55;100923.66;5103316;28;20028;-70
2022/12/10 00:27:18;;;;;;;66.25;17.90;;;;;;;-2.08;92.01;100932.91;5097253;28;20039;-69
2022/12/10 00:29:43;;;;;;;98.40;25.60;;;;;;;-2.12;91.69;100911.19;5103753;28;20062;-69
2022/12/10 00:32:09;;;;;;;17.50;5.80;;;;;;;-2.17;92.31;100923.88;5108794;28;20059;-69
2022/12/10 00:34:34;;;;;;;79.00;23.35;;;;;;;-2.10;92.14;100925.09;5111270;28;20027;-71
2022/12/10 00:37:00;;;;;;;50.95;20.65;;;;;;;-2.17;92.06;100926.50;5100769;28;20107;-70
2022/12/10 00:39:25;;;;;;;11.80;7.03;;;;;;;-2.31;92.06;100887.16;5115314;28;20123;-71
2022/12/10 00:41:50;;;;;;;4.53;3.38;;;;;;;-2.16;92.66;100934.28;5119681;28;20087;-70
2022/12/10 00:44:16;;;;;;;4.10;3.30;;;;;;;-2.46;92.99;100902.31;5121204;28;20028;-70
2022/12/10 00:46:42;;;;;;;4.25;3.40;;;;;;;-2.15;93.09;100935.16;5116099;28;20031;-70
2022/12/10 00:49:07;;;;;;;3.95;3.03;;;;;;;-2.18;92.64;100920.41;5098344;28;20074;-71
2022/12/10 00:51:33;;;;;;;3.95;2.53;;;;;;;-2.37;93.02;100899.00;5091987;28;20173;-71
2022/12/10 00:53:59;;;;;;;4.50;3.03;;;;;;;-2.04;92.50;100945.72;5107211;28;20442;-70
2022/12/10 00:56:28;;;;;;;4.63;2.83;;;;;;;-2.07;92.56;100937.22;5106850;28;20024;-70
2022/12/10 00:58:56;;;;;;;7.45;3.10;;;;;;;-2.16;92.46;100949.28;5115104;28;20030;-70
2022/12/10 01:01:24;;;;;;;4.32;2.83;;;;;;;-2.34;92.43;100916.38;5084267;28;20391;-70
2022/12/10 01:03:52;;;;;;;5.65;3.13;;;;;;;-2.16;92.01;100944.00;5112449;28;20404;-71
2022/12/10 01:06:24;;;;;;;3.90;2.60;;;;;;;-2.13;92.48;100951.69;5110007;28;20042;-70
2022/12/10 01:08:54;;;;;;;3.13;2.17;;;;;;;-2.25;91.80;100945.53;5103564;28;20028;-71
2022/12/10 01:11:21;;;;;;;3.88;2.50;;;;;;;-2.26;92.28;100954.38;5113960;28;20126;-70
2022/12/10 01:13:48;;;;;;;4.07;2.40;;;;;;;-2.22;91.83;100955.00;5104867;28;20080;-70
2022/12/10 01:16:16;;;;;;;3.33;2.40;;;;;;;-2.14;91.98;100957.91;5105917;28;20028;-71
2022/12/10 01:18:41;;;;;;;3.80;2.45;;;;;;;-2.18;92.06;100956.47;5111185;28;20437;-70
2022/12/10 01:21:12;;;;;;;3.30;2.42;;;;;;;-2.11;91.69;100962.97;5101838;28;20031;-70
2022/12/10 01:23:40;;;;;;;3.33;2.33;;;;;;;-2.21;91.79;100965.44;5113368;28;20105;-70
2022/12/10 01:26:08;;;;;;;4.78;2.90;;;;;;;-2.08;91.31;100961.91;5107531;28;20070;-70
2022/12/10 01:28:37;;;;;;;3.25;2.47;;;;;;;-2.16;90.99;100963.28;5103586;28;20036;-71
2022/12/10 01:31:05;;;;;;;5.05;2.80;;;;;;;-2.24;91.62;100959.56;5113225;28;20035;-70
2022/12/10 01:33:32;;;;;;;4.05;2.50;;;;;;;-2.29;92.05;100962.50;5102533;28;20367;-71
2022/12/10 01:36:06;;;;;;;4.03;2.55;;;;;;;-2.26;92.09;100964.09;5111029;28;20137;-70
2022/12/10 01:38:31;;;;;;;4.90;2.63;;;;;;;-2.24;91.27;100964.81;5112347;28;20087;-70
2022/12/10 01:40:57;;;;;;;4.10;2.58;;;;;;;-2.22;91.28;100968.16;5114385;28;20110;-70
2022/12/10 01:43:23;;;;;;;5.32;2.80;;;;;;;-2.26;91.40;100961.44;5126791;28;20035;-71
2022/12/10 01:45:48;;;;;;;4.20;2.80;;;;;;;-2.51;90.90;100923.72;5117108;28;20019;-70
2022/12/10 01:48:14;;;;;;;4.25;2.70;;;;;;;-2.26;90.78;100964.09;5121639;28;20137;-71
2022/12/10 01:50:39;;;;;;;4.35;2.60;;;;;;;-2.30;90.99;100962.63;5125793;28;20057;-71
2022/12/10 01:53:05;;;;;;;3.67;2.78;;;;;;;-2.36;90.55;100963.91;5113421;28;20040;-70
2022/12/10 01:55:50;;;;;;;4.38;2.38;;;;;;;-2.38;90.78;100966.69;5108373;28;20012;-71
2022/12/10 01:58:18;;;;;;;3.90;2.42;;;;;;;-2.71;90.86;100927.81;5121622;28;20024;-71
2022/12/10 02:01:03;;;;;;;3.83;2.85;;;;;;;-2.45;90.69;100965.44;5116902;28;20099;-70
2022/12/10 02:04:03;;;;;;;3.90;2.58;;;;;;;-2.41;90.39;100966.91;5113850;28;20102;-71
2022/12/10 02:06:41;;;;;;;3.30;2.35;;;;;;;-2.36;89.48;100967.38;5118756;28;20075;-70
2022/12/10 02:09:45;;;;;;;3.95;2.38;;;;;;;-2.37;89.51;100973.63;5127446;28;20023;-70
2022/12/10 02:12:25;;;;;;;3.40;2.85;;;;;;;-2.42;89.21;100972.25;5102322;28;20378;-70
2022/12/10 02:15:03;;;;;;;4.00;2.95;;;;;;;-2.60;90.25;100970.00;5116155;28;20028;-70
2022/12/10 02:17:37;;;;;;;2.63;2.30;;;;;;;-2.77;91.34;100977.44;5098963;28;20479;-71
2022/12/10 02:20:08;;;;;;;3.05;2.22;;;;;;;-3.02;92.86;100978.31;5123377;28;20024;-71
2022/12/10 02:22:45;;;;;;;3.38;2.50;;;;;;;-2.83;92.46;100976.91;5122874;28;20028;-71
2022/12/10 02:25:14;;;;;;;3.40;2.35;;;;;;;-2.94;92.05;100970.75;5113590;28;20049;-70
2022/12/10 02:27:52;;;;;;;4.07;3.03;;;;;;;-2.73;91.29;100974.47;5125173;28;20053;-71
2022/12/10 02:30:18;;;;;;;3.38;2.60;;;;;;;-2.64;90.97;100976.47;5121381;28;20081;-71
2022/12/10 02:32:46;;;;;;;3.20;2.63;;;;;;;-2.84;90.95;100967.34;5117840;28;20028;-70
2022/12/10 02:35:38;;;;;;;4.45;2.63;;;;;;;-2.72;90.21;100962.13;5124972;28;20023;-71
2022/12/10 02:38:12;;;;;;;4.00;2.40;;;;;;;-2.72;90.67;100973.50;5108235;28;20510;-70
2022/12/10 02:40:42;;;;;;;4.13;2.72;;;;;;;-2.98;90.69;100950.81;5110924;28;20040;-71
2022/12/10 02:43:09;;;;;;;2.97;2.28;;;;;;;-3.19;91.53;100943.50;5126074;28;20038;-71
2022/12/10 02:45:36;;;;;;;3.72;2.47;;;;;;;-3.02;91.71;100979.16;5118484;28;20007;-70
2022/12/10 02:48:04;;;;;;;4.70;2.72;;;;;;;-3.03;91.40;100963.47;5102236;28;20036;-70
2022/12/10 02:50:29;;;;;;;3.95;2.80;;;;;;;-2.87;90.89;100975.47;5116510;28;20429;-70
2022/12/10 02:52:55;;;;;;;3.78;2.75;;;;;;;-2.81;90.84;100982.09;5101077;28;20059;-70
2022/12/10 02:55:20;;;;;;;3.72;2.53;;;;;;;-2.96;90.54;100983.16;5114211;28;20084;-71
2022/12/10 02:58:09;;;;;;;3.75;2.60;;;;;;;-3.14;90.78;100949.28;5110704;28;20024;-71
2022/12/10 03:00:49;;;;;;;3.65;2.65;;;;;;;-2.93;90.99;100983.78;5109602;28;20012;-71
2022/12/10 03:03:14;;;;;;;4.38;2.70;;;;;;;-3.10;90.82;100987.59;5119172;28;20051;-71
2022/12/10 03:06:16;;;;;;;3.55;2.72;;;;;;;-3.13;91.85;101000.13;5109738;28;20038;-70
2022/12/10 03:09:05;;;;;;;3.60;2.50;;;;;;;-3.17;91.77;100998.66;5110652;28;20036;-71
2022/12/10 03:11:32;;;;;;;4.60;2.72;;;;;;;-3.09;91.20;100997.16;5094557;28;20050;-71
2022/12/10 03:14:07;;;;;;;3.50;2.72;;;;;;;-3.14;91.36;100998.47;5120140;28;20538;-70
2022/12/10 03:16:37;;;;;;;4.80;2.90;;;;;;;-3.19;91.15;100998.75;5121143;28;20035;-70
2022/12/10 03:19:11;;;;;;;4.38;3.03;;;;;;;-2.98;90.47;100992.94;5111873;28;20020;-71
2022/12/10 03:21:40;;;;;;;3.80;2.70;;;;;;;-3.20;90.83;100996.25;5096480;28;20035;-71
2022/12/10 03:24:07;;;;;;;3.95;2.97;;;;;;;-3.08;90.39;101003.28;5101285;28;20028;-72
2022/12/10 03:26:33;;;;;;;3.30;2.65;;;;;;;-3.14;90.42;101004.56;5120324;28;20035;-71
2022/12/10 03:29:06;;;;;;;3.65;2.85;;;;;;;-3.22;90.82;101001.59;5107488;28;20047;-71
2022/12/10 03:31:34;;;;;;;4.32;2.83;;;;;;;-3.35;90.91;100996.31;5087322;28;20019;-71
2022/12/10 03:34:00;;;;;;;4.22;3.00;;;;;;;-3.34;90.89;100994.56;5112152;28;20023;-71
2022/12/10 03:36:27;;;;;;;3.45;2.70;;;;;;;-3.47;90.62;100976.13;5112195;28;20034;-71
2022/12/10 03:38:53;;;;;;;4.53;2.80;;;;;;;-3.40;90.72;101000.25;5105585;28;20028;-70
2022/12/10 03:41:19;;;;;;;3.58;2.53;;;;;;;-3.43;91.02;100993.41;5117238;28;20038;-71
2022/12/10 03:43:56;;;;;;;3.33;2.20;;;;;;;-3.32;91.25;100990.84;5104979;28;20031;-71
2022/12/10 03:46:22;;;;;;;4.25;2.30;;;;;;;-3.55;91.40;100973.16;5108591;28;20433;-71
2022/12/10 03:48:50;;;;;;;2.30;2.08;;;;;;;-3.47;91.45;100981.41;5113814;28;20073;-71
2022/12/10 03:51:16;;;;;;;3.47;2.30;;;;;;;-3.29;91.61;100986.34;5085331;28;20036;-71
2022/12/10 03:53:41;;;;;;;3.30;2.13;;;;;;;-3.56;91.01;100943.41;5114190;28;20057;-70
2022/12/10 03:56:10;;;;;;;3.60;2.38;;;;;;;-3.36;90.88;100983.28;5109700;28;20517;-70
2022/12/10 03:58:37;;;;;;;4.45;2.50;;;;;;;-3.17;90.11;100980.25;5107746;28;20032;-71
2022/12/10 04:01:04;;;;;;;3.60;2.50;;;;;;;-3.13;89.73;100981.72;5114947;28;20082;-71
2022/12/10 04:03:29;;;;;;;2.30;1.77;;;;;;;-3.18;89.04;100978.53;5103070;28;20063;-71
2022/12/10 04:06:01;;;;;;;3.90;2.60;;;;;;;-3.19;89.16;100984.75;5113008;28;20135;-70
2022/12/10 04:08:27;;;;;;;4.70;2.20;;;;;;;-3.21;89.64;100979.63;5111387;28;20043;-71
2022/12/10 04:10:52;;;;;;;2.78;1.95;;;;;;;-3.34;90.70;100982.25;5104884;28;20024;-71
2022/12/10 04:18:45;;;;;;;4.43;2.30;;;;;;;-3.17;89.26;100982.88;5105322;28;20161;-70
2022/12/10 04:26:55;;;;;;;3.35;2.35;;;;;;;-3.19;88.81;100988.22;5106507;28;20461;-71
2022/12/10 04:29:26;;;;;;;3.08;2.20;;;;;;;-3.22;88.48;100990.22;5115129;28;20155;-71
2022/12/10 04:31:52;;;;;;;3.47;2.35;;;;;;;-3.22;88.21;100984.97;5105649;28;20038;-71
2022/12/10 04:34:17;;;;;;;2.78;2.20;;;;;;;-3.26;88.17;100986.13;5109197;28;20032;-70
2022/12/10 04:36:43;;;;;;;4.07;2.67;;;;;;;-3.30;87.72;100982.88;5111591;28;20035;-71
2022/12/10 04:39:11;;;;;;;5.18;3.35;;;;;;;-3.53;87.77;100941.53;5100957;28;20056;-71
2022/12/10 04:41:39;;;;;;;3.65;2.42;;;;;;;-3.38;88.28;100987.81;5113636;28;20441;-71
2022/12/10 04:44:04;;;;;;;4.20;2.90;;;;;;;-3.29;87.85;100989.81;5105861;28;20019;-70
2022/12/10 04:46:30;;;;;;;5.85;2.60;;;;;;;-3.34;87.71;100987.50;5089016;28;20032;-70
2022/12/10 04:48:56;;;;;;;3.78;2.70;;;;;;;-3.36;87.91;100994.66;5112844;28;20031;-71
2022/12/10 04:51:22;;;;;;;3.40;2.53;;;;;;;-3.40;87.78;100995.81;5083727;28;20062;-71
2022/12/10 04:53:47;;;;;;;4.13;2.80;;;;;;;-3.40;87.83;100998.44;5111989;28;20033;-70
2022/12/10 04:56:13;;;;;;;3.58;2.60;;;;;;;-3.36;88.00;100997.28;5117734;28;20035;-71
2022/12/10 04:58:38;;;;;;;4.50;2.80;;;;;;;-3.40;88.08;101001.06;5120246;28;20024;-71
2022/12/10 05:01:07;;;;;;;4.63;2.72;;;;;;;-3.35;87.98;101004.22;5120872;28;20073;-70
2022/12/10 05:03:32;;;;;;;3.10;2.65;;;;;;;-3.38;87.39;101000.97;5084973;28;20047;-70
2022/12/10 05:06:07;;;;;;;3.03;2.65;;;;;;;-3.41;87.70;101009.06;5072509;28;20502;-71
2022/12/10 05:08:33;;;;;;;4.78;3.10;;;;;;;-3.44;87.44;100999.59;5108450;28;20031;-70
2022/12/10 05:11:10;;;;;;;4.00;2.88;;;;;;;-3.50;87.47;100984.25;5103388;28;20058;-70
2022/12/10 05:13:35;;;;;;;4.70;3.13;;;;;;;-3.53;87.42;100986.25;5085824;28;20087;-70
2022/12/10 05:16:03;;;;;;;3.50;2.97;;;;;;;-3.47;87.29;101002.44;5110942;28;20051;-70
2022/12/10 05:18:28;;;;;;;3.78;3.10;;;;;;;-3.70;87.26;100979.50;5108451;28;20023;-71
2022/12/10 05:20:53;;;;;;;4.03;3.00;;;;;;;-3.63;87.05;100986.84;5102298;28;20140;-70
2022/12/10 05:23:28;;;;;;;3.42;2.67;;;;;;;-3.48;87.18;101006.00;5115016;28;20039;-70
2022/12/10 05:26:07;;;;;;;3.88;2.97;;;;;;;-3.48;86.98;100998.09;5105149;28;20107;-70
2022/12/10 05:28:36;;;;;;;4.38;2.95;;;;;;;-3.53;86.63;101005.50;5106352;28;20043;-70
2022/12/10 05:31:02;;;;;;;3.65;2.88;;;;;;;-3.53;86.69;101002.84;5114045;28;20023;-71
2022/12/10 05:33:27;;;;;;;5.10;3.28;;;;;;;-3.53;86.99;101007.28;5102175;28;20035;-70
2022/12/10 05:36:02;;;;;;;8.05;5.03;;;;;;;-3.66;86.85;100999.38;5108960;28;20103;-71
2022/12/10 05:38:29;;;;;;;8.75;5.95;;;;;;;-3.69;86.57;101010.94;5107169;28;20124;-70
2022/12/10 05:40:55;;;;;;;8.73;4.90;;;;;;;-3.78;86.62;101011.53;5101950;28;20040;-70
2022/12/10 05:43:21;;;;;;;5.63;4.13;;;;;;;-3.83;86.54;101016.28;5114544;28;20046;-71
2022/12/10 05:45:47;;;;;;;5.25;4.22;;;;;;;-3.82;86.75;101007.44;5102215;28;20058;-70
2022/12/10 05:48:15;;;;;;;5.72;3.90;;;;;;;-3.82;86.35;101013.53;5090969;28;20036;-71
2022/12/10 05:50:41;;;;;;;5.82;3.83;;;;;;;-3.82;86.61;101018.78;5110579;28;20051;-70
2022/12/10 05:53:07;;;;;;;7.65;5.45;;;;;;;-3.91;86.54;101006.25;5082957;28;20036;-72
2022/12/10 05:55:32;;;;;;;7.22;5.40;;;;;;;-4.07;86.32;100984.56;5084526;28;20027;-71
2022/12/10 05:57:59;;;;;;;12.52;8.40;;;;;;;-3.98;86.47;100999.69;5111371;28;20024;-71
2022/12/10 06:00:25;;;;;;;7.90;5.57;;;;;;;-3.92;86.32;101017.69;5107758;28;20401;-71
2022/12/10 06:02:51;;;;;;;6.32;4.78;;;;;;;-4.03;86.61;101013.16;5102031;28;20127;-70
2022/12/10 06:05:16;;;;;;;6.75;4.38;;;;;;;-4.05;86.77;101014.19;5113311;28;20063;-71
2022/12/10 06:07:43;;;;;;;5.53;3.83;;;;;;;-4.29;87.22;100999.06;5101523;28;20110;-71
2022/12/10 06:10:10;;;;;;;5.85;4.00;;;;;;;-4.12;87.33;101019.00;5090882;28;20368;-71
2022/12/10 06:12:36;;;;;;;6.38;4.25;;;;;;;-4.15;87.49;101026.25;5108338;28;20032;-71
2022/12/10 06:15:01;;;;;;;5.82;3.90;;;;;;;-4.41;87.07;100984.09;5101145;28;20584;-71
2022/12/10 06:17:27;;;;;;;5.78;4.07;;;;;;;-4.14;86.94;101022.66;5114855;28;20116;-71
2022/12/10 06:19:52;;;;;;;5.40;3.78;;;;;;;-4.14;86.89;101033.19;5102595;28;20028;-71
2022/12/10 06:22:18;;;;;;;4.95;3.65;;;;;;;-4.18;86.80;101027.28;5089562;28;20093;-71
2022/12/10 06:24:43;;;;;;;6.90;4.18;;;;;;;-4.31;86.77;101011.47;5090422;28;20415;-71
2022/12/10 06:27:09;;;;;;;8.50;5.35;;;;;;;-4.23;86.41;101031.16;5097784;28;20074;-71
2022/12/10 06:29:34;;;;;;;6.72;4.57;;;;;;;-4.30;86.26;101022.84;5114019;28;20050;-71
2022/12/10 06:31:59;;;;;;;6.22;4.28;;;;;;;-4.29;86.29;101038.50;5103393;28;20043;-70
2022/12/10 06:34:25;;;;;;;5.90;4.05;;;;;;;-4.37;85.88;101035.53;5106933;28;20051;-71
2022/12/10 06:36:50;;;;;;;5.85;3.63;;;;;;;-4.41;86.20;101039.25;5111647;28;20050;-71
2022/12/10 06:39:16;;;;;;;8.38;5.25;;;;;;;-4.64;86.29;101003.09;5100798;28;20036;-71
2022/12/10 06:41:43;;;;;;;10.23;5.30;;;;;;;-4.54;86.32;101014.72;5113727;28;20506;-71
2022/12/10 06:44:10;;;;;;;13.35;6.50;;;;;;;-4.39;86.29;101040.00;5109455;28;20015;-72
2022/12/10 06:46:36;;;;;;;9.98;5.13;;;;;;;-4.43;86.24;101049.03;5110223;28;20028;-71
2022/12/10 06:49:02;;;;;;;9.60;5.22;;;;;;;-4.46;86.33;101043.97;5116363;28;20107;-71
2022/12/10 06:51:27;;;;;;;11.20;5.65;;;;;;;-4.49;86.40;101041.53;5103775;28;20039;-71
2022/12/10 06:53:53;;;;;;;10.43;5.70;;;;;;;-4.45;86.03;101048.28;5097196;28;20021;-71
2022/12/10 06:56:19;;;;;;;7.80;5.15;;;;;;;-4.47;86.16;101047.53;5092985;28;20092;-70
2022/12/10 06:58:45;;;;;;;6.65;4.03;;;;;;;-4.48;86.32;101045.84;5108439;28;20051;-71
2022/12/10 07:01:17;;;;;;;6.28;3.97;;;;;;;-4.54;86.44;101046.22;5117799;28;20112;-71
2022/12/10 07:03:43;;;;;;;6.25;3.72;;;;;;;-4.57;86.46;101051.66;5105035;28;20032;-71
2022/12/10 07:06:10;;;;;;;10.57;6.05;;;;;;;-4.54;86.08;101052.31;5111911;28;20016;-71
2022/12/10 07:08:36;;;;;;;10.18;6.10;;;;;;;-4.56;86.02;101053.38;5126962;28;20019;-75
2022/12/10 07:11:07;;;;;;;5.22;3.70;;;;;;;-4.58;86.26;101050.81;5135836;27;20035;-75
2022/12/10 07:13:32;;;;;;;7.43;4.30;;;;;;;-4.60;86.32;101062.34;5120018;28;20035;-71
2022/12/10 07:15:58;;;;;;;8.85;4.72;;;;;;;-4.83;86.67;101046.28;5090380;28;20027;-70
2022/12/10 07:18:24;;;;;;;6.53;4.00;;;;;;;-4.69;86.59;101069.03;5091396;28;20030;-71
2022/12/10 07:20:49;;;;;;;4.05;3.28;;;;;;;-4.64;86.58;101068.75;5112485;28;20024;-71
2022/12/10 07:23:14;;;;;;;5.57;3.72;;;;;;;-4.60;86.42;101065.84;5104056;28;20043;-71
2022/12/10 07:25:40;;;;;;;5.00;3.42;;;;;;;-4.58;86.16;101065.75;5114849;28;20024;-71
2022/12/10 07:28:05;;;;;;;7.00;3.85;;;;;;;-4.57;86.26;101063.03;5071142;28;20027;-71
2022/12/10 07:30:31;;;;;;;5.85;3.58;;;;;;;-4.60;86.03;101063.22;5108710;28;20028;-70
2022/12/10 07:32:57;;;;;;;6.05;3.97;;;;;;;-4.84;85.82;101031.44;5097161;27;20036;-71
2022/12/10 07:35:22;;;;;;;6.47;3.63;;;;;;;-4.62;85.78;101069.50;5085616;28;20031;-70
2022/12/10 07:37:48;;;;;;;4.93;3.65;;;;;;;-4.67;85.89;101068.94;5113906;28;20032;-71
2022/12/10 07:40:13;;;;;;;6.07;4.10;;;;;;;-4.69;85.84;101068.19;5109141;28;20055;-70
2022/12/10 07:42:38;;;;;;;5.38;3.78;;;;;;;-4.73;85.43;101067.53;5093232;28;20035;-72
2022/12/10 07:45:04;;;;;;;5.95;3.55;;;;;;;-4.81;85.26;101073.25;5099262;28;20102;-71
2022/12/10 07:47:30;;;;;;;6.05;3.78;;;;;;;-4.89;86.03;101078.13;5107079;28;20069;-71
2022/12/10 07:49:55;;;;;;;6.82;4.45;;;;;;;-4.93;85.69;101049.53;5101349;28;20131;-70
2022/12/10 07:52:20;;;;;;;5.93;4.15;;;;;;;-4.77;85.62;101069.53;5096601;28;20035;-70
2022/12/10 07:54:46;;;;;;;7.63;4.65;;;;;;;-4.75;85.66;101080.75;5110530;28;20067;-71
2022/12/10 07:57:11;;;;;;;6.90;4.60;;;;;;;-4.72;85.41;101077.09;5117204;28;20058;-70
2022/12/10 07:59:37;;;;;;;9.02;5.18;;;;;;;-4.68;85.44;101078.59;5104095;28;20063;-70
2022/12/10 08:02:03;;;;;;;8.23;5.30;;;;;;;-4.68;85.18;101085.63;5112226;28;20056;-69
2022/12/10 08:04:30;;;;;;;10.63;5.28;;;;;;;-4.68;85.17;101093.50;5110638;28;20051;-69
2022/12/10 08:06:56;;;;;;;13.88;7.18;;;;;;;-4.76;85.98;101091.34;5105201;28;20537;-69
2022/12/10 08:09:22;;;;;;;11.32;6.30;;;;;;;-4.62;85.40;101093.13;5116436;28;20076;-70
2022/12/10 08:11:47;;;;;;;14.63;7.25;;;;;;;-4.56;85.44;101100.63;5103242;28;20042;-69
2022/12/10 08:14:12;;;;;;;12.20;5.85;;;;;;;-4.54;85.70;101098.75;5111048;28;20038;-69
2022/12/10 08:16:38;;;;;;;11.35;6.63;;;;;;;-4.51;85.30;101098.56;5110308;28;20118;-69
2022/12/10 08:19:03;;;;;;;10.63;6.10;;;;;;;-4.48;85.57;101106.25;5115615;28;20083;-70
2022/12/10 08:21:31;;;;;;;8.95;6.03;;;;;;;-4.56;85.37;101085.72;5102537;28;20040;-70
2022/12/10 08:23:57;;;;;;;10.85;6.63;;;;;;;-4.39;85.50;101107.47;5112462;28;20031;-70
2022/12/10 08:26:26;;;;;;;8.02;4.75;;;;;;;-4.42;85.41;101103.25;5110543;28;20155;-70
2022/12/10 08:28:53;;;;;;;7.07;4.93;;;;;;;-4.35;85.24;101098.44;5106363;28;20063;-72
2022/12/10 08:31:20;;;;;;;8.32;5.10;;;;;;;-4.33;85.00;101100.06;5116446;28;20142;-72
2022/12/10 08:33:46;;;;;;;8.70;4.40;;;;;;;-4.34;85.35;101111.50;5102744;28;20023;-72
2022/12/10 08:36:13;;;;;;;6.70;4.07;;;;;;;-4.52;85.42;101081.97;5093656;28;20051;-69
2022/12/10 08:38:40;;;;;;;6.50;4.32;;;;;;;-4.37;85.49;101111.69;5110567;28;20054;-69
2022/12/10 08:41:12;;;;;;;6.40;4.35;;;;;;;-4.38;85.47;101111.78;5104000;28;20042;-69
2022/12/10 08:43:37;;;;;;;6.38;4.55;;;;;;;-4.35;85.24;101117.69;5116258;28;20065;-70
2022/12/10 08:46:03;;;;;;;7.55;5.40;;;;;;;-4.43;85.09;101090.22;5106906;28;20051;-67
2022/12/10 08:48:29;;;;;;;8.40;4.68;;;;;;;-4.23;85.12;101112.63;5107929;28;20032;-69
2022/12/10 08:50:55;;;;;;;6.60;4.22;;;;;;;-4.23;85.09;101117.88;5114077;28;20063;-70
2022/12/10 08:53:20;;;;;;;7.45;4.43;;;;;;;-4.22;84.96;101130.06;5101449;28;20028;-70
2022/12/10 08:55:49;;;;;;;6.10;4.00;;;;;;;-4.40;85.28;101117.13;5115147;28;20024;-70
2022/12/10 08:58:14;;;;;;;5.03;3.88;;;;;;;-4.36;85.41;101123.88;5107867;28;20031;-70
2022/12/10 09:00:40;;;;;;;6.53;4.30;;;;;;;-4.28;85.70;101126.84;5106320;28;20039;-70
2022/12/10 09:03:05;;;;;;;7.22;4.10;;;;;;;-4.25;85.32;101129.28;5112861;28;20056;-70
2022/12/10 09:05:31;;;;;;;6.75;4.03;;;;;;;-4.13;85.47;101129.50;5083473;28;20517;-69
2022/12/10 09:07:56;;;;;;;5.78;3.90;;;;;;;-4.14;85.60;101122.53;5095035;28;20024;-70
2022/12/10 09:10:22;;;;;;;6.97;4.50;;;;;;;-4.22;86.19;101135.31;5106865;28;20035;-71
2022/12/10 09:12:48;;;;;;;6.60;4.55;;;;;;;-4.01;85.57;101131.31;5104262;28;20040;-72
2022/12/10 09:15:13;;;;;;;7.00;4.60;;;;;;;-3.94;85.37;101121.25;5117174;28;20427;-72
2022/12/10 09:17:39;;;;;;;7.82;4.85;;;;;;;-3.83;85.21;101124.91;5097898;28;20080;-73
2022/12/10 09:20:05;;;;;;;6.88;4.82;;;;;;;-3.83;84.88;101111.75;5122043;28;20035;-71
2022/12/10 09:22:30;;;;;;;6.20;4.45;;;;;;;-3.61;84.53;101141.91;5110168;28;20099;-69
2022/12/10 09:24:56;;;;;;;7.22;4.88;;;;;;;-3.50;84.26;101149.97;5099485;28;20085;-71
2022/12/10 09:27:21;;;;;;;6.90;5.00;;;;;;;-3.45;84.50;101147.00;5110321;28;20108;-70
2022/12/10 09:29:47;;;;;;;6.65;4.90;;;;;;;-3.49;84.22;101145.53;5085566;28;20032;-72
2022/12/10 09:32:12;;;;;;;6.68;4.55;;;;;;;-3.37;84.15;101142.94;5108021;28;20390;-71
2022/12/10 09:34:38;;;;;;;7.88;5.28;;;;;;;-3.23;83.91;101146.47;5110115;28;20081;-71
2022/12/10 09:37:03;;;;;;;7.60;4.97;;;;;;;-3.15;83.66;101150.25;5086012;28;20390;-68
2022/12/10 09:39:29;;;;;;;6.82;4.72;;;;;;;-3.19;83.67;101132.13;5097937;28;20505;-69
2022/12/10 09:42:15;;;;;;;16.88;8.65;;;;;;;-3.12;83.75;101144.78;5104757;28;20052;-70
2022/12/10 09:44:59;;;;;;;14.38;8.13;;;;;;;-2.98;83.69;101153.53;5106318;28;20051;-72
2022/12/10 09:47:36;;;;;;;30.30;15.20;;;;;;;-2.90;83.49;101146.81;5116388;28;20438;-70
2022/12/10 09:50:49;;;;;;;21.00;13.40;;;;;;;-3.01;83.27;101157.25;5105894;28;20012;-71
2022/12/10 09:53:18;;;;;;;22.42;13.07;;;;;;;-3.03;83.69;101126.69;5101200;28;20032;-72
2022/12/10 09:55:46;;;;;;;49.25;27.17;;;;;;;-2.94;83.72;101157.69;5115131;28;20104;-72
2022/12/10 09:58:38;;;;;;;9.07;6.43;;;;;;;-2.97;83.41;101147.34;5106785;28;20051;-73
2022/12/10 10:01:05;;;;;;;12.00;8.82;;;;;;;-3.09;83.21;101115.63;5117023;27;20384;-72
2022/12/10 10:03:36;;;;;;;9.80;7.18;;;;;;;-2.87;83.29;101154.50;5116451;28;20042;-72
2022/12/10 10:06:03;;;;;;;12.05;8.73;;;;;;;-2.68;83.54;101161.16;5105528;28;20035;-73
2022/12/10 10:08:38;;;;;;;8.38;6.07;;;;;;;-2.55;83.11;101164.66;5108185;28;20040;-73
2022/12/10 10:11:04;;;;;;;8.27;5.75;;;;;;;-2.53;82.65;101152.19;5115204;28;20035;-72
2022/12/10 10:13:39;;;;;;;8.00;5.15;;;;;;;-2.47;82.74;101158.84;5084414;28;20081;-72
2022/12/10 10:16:16;;;;;;;6.72;4.95;;;;;;;-2.78;83.29;101131.13;5110805;28;20084;-72
2022/12/10 10:18:48;;;;;;;6.65;4.55;;;;;;;-2.60;83.03;101141.25;5109676;28;20031;-73
2022/12/10 10:21:26;;;;;;;5.13;4.10;;;;;;;-2.62;83.43;101143.16;5103655;28;20028;-73
2022/12/10 10:23:52;;;;;;;6.60;4.63;;;;;;;-2.67;83.45;101165.50;5088778;28;20031;-72
2022/12/10 10:26:17;;;;;;;6.03;4.22;;;;;;;-2.85;84.31;101171.06;5111630;28;20579;-72
2022/12/10 10:28:45;;;;;;;6.88;5.18;;;;;;;-2.92;85.52;101161.88;5110972;28;20023;-73
2022/12/10 10:31:31;;;;;;;7.20;4.25;;;;;;;-2.68;85.31;101169.03;5103413;28;20553;-72
2022/12/10 10:33:59;;;;;;;7.25;4.88;;;;;;;-2.77;85.25;101172.34;5085150;28;20031;-72
2022/12/10 10:36:37;;;;;;;6.85;4.65;;;;;;;-2.65;85.21;101167.06;5106426;28;20024;-72
2022/12/10 10:39:18;;;;;;;6.32;4.55;;;;;;;-2.48;84.33;101165.91;5112915;28;20023;-73
2022/12/10 10:41:48;;;;;;;7.68;4.88;;;;;;;-2.44;84.33;101171.81;5087582;28;20032;-73
2022/12/10 10:44:20;;;;;;;6.60;5.00;;;;;;;-2.67;84.62;101147.06;5109777;28;20028;-72
2022/12/10 10:46:48;;;;;;;8.35;4.65;;;;;;;-2.54;84.95;101171.59;5110560;28;20039;-72
2022/12/10 10:49:23;;;;;;;7.35;4.88;;;;;;;-2.38;84.45;101169.59;5102630;28;20399;-73
2022/12/10 10:51:50;;;;;;;7.13;4.68;;;;;;;-2.49;84.43;101134.38;5088184;28;20016;-72
2022/12/10 10:54:46;;;;;;;7.80;4.95;;;;;;;-2.26;84.18;101175.78;5109136;28;20081;-72
2022/12/10 10:57:23;;;;;;;8.65;4.80;;;;;;;-2.26;83.84;101181.06;5114986;28;20069;-72
2022/12/10 10:59:51;;;;;;;6.63;4.45;;;;;;;-2.55;84.08;101146.22;5083750;28;20146;-72
2022/12/10 11:02:36;;;;;;;7.38;5.03;;;;;;;-2.21;84.51;101181.59;5108803;28;20048;-72
2022/12/10 11:05:17;;;;;;;7.82;5.03;;;;;;;-2.26;84.31;101156.50;5109866;28;20127;-72
2022/12/10 11:07:43;;;;;;;6.40;4.95;;;;;;;-2.14;84.21;101177.56;5100099;28;20645;-72
2022/12/10 11:10:23;;;;;;;6.63;4.93;;;;;;;-2.22;83.73;101160.59;5108427;28;20027;-72
2022/12/10 11:13:18;;;;;;;8.30;4.82;;;;;;;-1.97;83.98;101172.91;5108593;28;20024;-72
2022/12/10 11:15:44;;;;;;;6.93;4.70;;;;;;;-1.84;83.50;101172.88;5082625;28;20023;-72
2022/12/10 11:18:51;;;;;;;7.80;5.15;;;;;;;-2.04;83.16;101154.03;5090433;28;20057;-72
2022/12/10 11:21:21;;;;;;;9.52;5.60;;;;;;;-1.77;82.73;101171.47;5103826;28;20036;-73
2022/12/10 11:23:52;;;;;;;9.00;5.90;;;;;;;-1.68;83.00;101174.28;5082918;28;20066;-73
2022/12/10 11:26:30;;;;;;;11.05;6.00;;;;;;;-1.59;82.44;101164.88;5108756;28;20035;-72
2022/12/10 11:29:14;;;;;;;10.35;6.15;;;;;;;-1.48;82.80;101159.66;5114190;28;20042;-72
2022/12/10 11:31:55;;;;;;;10.02;6.32;;;;;;;-1.39;82.36;101163.41;5104012;28;20034;-72
2022/12/10 11:34:45;;;;;;;11.73;6.53;;;;;;;-1.49;82.73;101157.09;5111257;28;20036;-72
2022/12/10 11:37:19;;;;;;;11.15;5.80;;;;;;;-1.46;82.44;101167.44;5116067;28;20053;-72
2022/12/10 11:40:24;;;;;;;13.60;7.55;;;;;;;-1.46;82.59;101160.38;5088922;28;20023;-72
2022/12/10 11:43:07;;;;;;;8.63;5.20;;;;;;;-1.65;82.06;101149.50;5106087;28;20042;-72
2022/12/10 11:45:51;;;;;;;11.52;5.93;;;;;;;-1.53;82.53;101164.41;5115621;28;20035;-72